Latest Weather Observations for Kununurra Airport

IDW60801

Issued at 11:03 pm WST Thursday 29 September 2016 (issued every 30 minutes, with the page automatically refreshed every 10 minutes)

About weather observations | Map of weather stations | Latest weather observations for WA | Other Formats
Station Details ID: 002056 Name: KUNUNURRA AERO Lat: -15.78 Lon: 128.71 Height: 44.0 m
Data from the previous 72 hours. | See also: Recent months at Kununurra Airport
Date/Time
WST
Temp
°C
App
Temp
°C
Dew
Point
°C
Rel
Hum
%
Delta-T
°C
Wind Press
QNH
hPa
Press
MSL
hPa
Rain since
9am
mm
Dir  Spd
km/h
Gust
km/h
Spd
kts
Gust
kts
29/11:00pm 27.2 28.4 19.8 64 4.8 N 13 15 7 8 1008.7 1008.4 0.0
29/10:30pm 28.2 29.3 19.7 60 5.6 N 13 17 7 9 1008.7 1008.4 0.0
29/10:00pm 28.9 30.2 19.2 55 6.3 NNE 11 13 6 7 1008.9 1008.6 0.0
29/09:30pm 29.5 30.3 19.8 56 6.4 NE 15 17 8 9 1008.7 1008.4 0.0
29/09:00pm 28.8 29.9 19.7 58 6.0 NE 13 13 7 7 1008.5 1008.2 0.0
29/08:30pm 29.7 31.0 19.4 54 6.7 N 11 13 6 7 1008.3 1008.0 0.0
29/08:00pm 29.8 31.3 19.8 55 6.6 NNE 11 13 6 7 1008.0 1007.7 0.0
29/07:30pm 30.6 31.7 19.6 51 7.2 N 13 17 7 9 1007.7 1007.4 0.0
29/07:00pm 31.1 30.9 18.5 47 8.2 N 17 22 9 12 1007.4 1007.1 0.0
29/06:30pm 32.5 33.3 17.2 40 9.8 SSE 9 11 5 6 1006.8 1006.5 0.0
29/06:00pm 33.7 34.3 15.7 34 11.3 S 7 9 4 5 1006.4 1006.1 0.0
29/05:30pm 34.4 34.6 15.8 33 11.7 S 9 11 5 6 1006.1 1005.8 0.0
29/05:00pm 35.8 36.3 15.5 29 12.8 S 7 9 4 5 1005.8 1005.5 0.0
29/04:30pm 36.9 36.0 14.8 26 13.8 S 13 15 7 8 1005.5 1005.2 0.0
29/04:00pm 38.1 38.1 15.2 25 14.5 SSW 9 15 5 8 1005.4 1005.1 0.0
29/03:30pm 38.3 37.7 13.5 23 15.3 SW 9 13 5 7 1005.3 1005.0 0.0
29/03:00pm 38.2 37.6 13.4 23 15.3 SW 9 15 5 8 1005.5 1005.2 0.0
29/02:30pm 38.0 37.3 13.3 23 15.2 SW 9 15 5 8 1005.5 1005.2 0.0
29/02:00pm 38.5 37.4 13.0 22 15.7 SW 11 19 6 10 1005.8 1005.5 0.0
29/01:30pm 38.2 37.0 14.1 24 15.0 S 13 19 7 10 1006.2 1005.9 0.0
29/01:00pm 38.2 37.4 14.1 24 15.0 SSW 11 19 6 10 1006.8 1006.5 0.0
29/12:30pm 37.3 35.7 14.0 25 14.4 S 15 20 8 11 1007.4 1007.1 0.0
29/12:00pm 36.8 35.3 14.1 25 14.1 SW 15 22 8 12 1007.9 1007.6 0.0
29/11:30am 37.1 36.3 15.0 27 13.9 S 13 20 7 11 1008.6 1008.3 0.0
29/11:00am 35.9 35.3 14.5 27 13.3 S 11 17 6 9 1009.2 1008.9 0.0
29/10:30am 35.6 33.9 14.8 28 13.0 S 17 26 9 14 1009.7 1009.4 0.0
29/10:00am 35.0 32.8 14.8 29 12.6 SSE 20 28 11 15 1010.2 1009.9 0.0
29/09:30am 34.8 32.5 14.1 28 12.7 SSE 19 26 10 14 1010.6 1010.3 0.0
29/09:00am 35.1 32.7 13.9 28 13.0 SSE 19 26 10 14 1010.8 1010.5 0.0
29/08:30am 34.0 31.8 14.5 31 12.0 SSE 19 26 10 14 1011.0 1010.7 0.0
29/08:00am 33.4 32.3 15.4 34 11.2 SSE 15 20 8 11 1011.0 1010.7 0.0
29/07:30am 32.1 33.3 18.3 44 8.9 SSE 9 11 5 6 1010.9 1010.6 0.0
29/07:00am 31.0 32.8 17.3 43 8.7 SE 4 9 2 5 1010.8 1010.5 0.0
29/06:30am 29.3 32.8 19.6 56 6.3 CALM 0 0 0 0 1010.5 1010.2 0.0
29/06:00am 26.1 30.3 20.9 73 3.4 CALM 0 0 0 0 1010.1 1009.8 0.0
29/05:30am 24.2 28.2 20.5 80 2.4 CALM 0 0 0 0 1009.8 1009.5 0.0
29/05:00am 23.6 27.3 19.9 80 2.4 CALM 0 0 0 0 1009.6 1009.3 0.0
29/04:30am 24.3 28.2 20.4 79 2.5 CALM 0 0 0 0 1009.3 1009.0 0.0
29/04:00am 25.0 27.5 19.8 73 3.4 SSE 6 7 3 4 1009.0 1008.7 0.0
29/03:30am 25.5 27.9 19.6 70 3.8 SSW 6 9 3 5 1008.7 1008.4 0.0
29/03:00am 26.4 28.1 19.3 65 4.6 SSE 9 11 5 6 1008.5 1008.2 0.0
29/02:30am 26.0 29.9 20.3 71 3.7 CALM 0 0 0 0 1008.3 1008.0 0.0
29/02:00am 26.8 30.0 20.6 69 4.1 S 4 7 2 4 1008.4 1008.1 0.0
29/01:30am 27.2 30.9 20.0 64 4.7 CALM 0 0 0 0 1008.5 1008.2 0.0
29/01:00am 26.9 28.8 19.8 65 4.6 N 9 11 5 6 1008.6 1008.3 0.0
29/12:30am 26.7 29.8 19.6 65 4.6 NNE 2 6 1 3 1008.9 1008.6 0.0
29/12:00am 26.9 29.1 19.5 64 4.8 N 7 9 4 5 1009.1 1008.8 0.0
 
Date/Time
WST
Temp
°C
App
Temp
°C
Dew
Point
°C
Rel
Hum
%
Delta-T
°C
Wind Press
QNH
hPa
Press
MSL
hPa
Rain since
9am
mm
Dir  Spd
km/h
Gust
km/h
Spd
kts
Gust
kts
28/11:30pm 27.6 29.6 19.1 59 5.5 NNE 7 9 4 5 1009.3 1009.0 0.0
28/11:00pm 28.1 29.0 18.5 56 6.2 N 11 15 6 8 1009.5 1009.2 0.0
28/10:30pm 27.6 28.7 18.0 55 6.1 NNW 9 15 5 8 1009.7 1009.4 0.0
28/10:00pm 28.6 30.0 18.7 55 6.4 NNE 9 11 5 6 1009.9 1009.6 0.0
28/09:30pm 29.9 29.8 17.0 45 8.1 NNW 13 15 7 8 1009.7 1009.4 0.0
28/09:00pm 30.6 31.8 17.3 45 8.5 NW 7 11 4 6 1010.0 1009.7 0.0
28/08:30pm 29.4 30.2 17.2 47 7.7 SW 9 13 5 7 1010.2 1009.9 0.0
28/08:00pm 30.0 31.1 17.1 46 8.2 NE 7 9 4 5 1009.4 1009.1 0.0
28/07:30pm 30.7 31.3 16.7 43 8.8 N 9 13 5 7 1008.9 1008.6 0.0
28/07:00pm 32.1 30.5 16.0 38 10.1 N 19 24 10 13 1008.4 1008.1 0.0
28/06:30pm 32.3 31.1 16.2 38 10.1 N 17 20 9 11 1007.9 1007.6 0.0
28/06:00pm 33.8 31.5 15.7 33 11.4 N 22 28 12 15 1007.4 1007.1 0.0
28/05:30pm 33.3 34.2 18.3 41 9.7 NNE 11 13 6 7 1006.5 1006.2 0.0
28/05:00pm 35.8 36.3 16.5 31 12.4 NNE 9 11 5 6 1006.1 1005.8 0.0
28/04:30pm 37.6 37.7 15.4 27 14.0 NE 9 15 5 8 1005.9 1005.6 0.0
28/04:00pm 38.1 37.6 12.7 22 15.5 WSW 7 9 4 5 1005.8 1005.5 0.0
28/03:30pm 38.5 37.7 13.0 22 15.6 WNW 9 15 5 8 1005.8 1005.5 0.0
28/03:00pm 39.0 38.1 12.7 21 16.1 SSW 9 15 5 8 1005.9 1005.6 0.0
28/02:30pm 39.3 37.2 13.7 22 15.9 NW 17 22 9 12 1006.1 1005.8 0.0
28/02:00pm 39.6 38.5 13.2 21 16.3 S 11 22 6 12 1006.3 1006.0 0.0
28/01:30pm 38.2 38.1 13.4 23 15.3 ESE 6 15 3 8 1006.7 1006.4 0.0
28/01:00pm 39.7 39.4 13.3 21 16.4 W 7 13 4 7 1007.0 1006.7 0.0
28/12:30pm 38.7 36.3 12.5 21 16.0 SSW 17 32 9 17 1007.5 1007.2 0.0
28/12:00pm 39.4 38.0 14.4 22 15.7 SW 15 24 8 13 1008.2 1007.9 0.0
28/11:30am 38.2 35.2 12.7 21 15.6 W 20 35 11 19 1008.9 1008.6 0.0
28/11:00am 38.1 35.3 12.7 22 15.5 WSW 19 35 10 19 1009.6 1009.3 0.0
28/10:30am 37.4 33.9 12.1 22 15.3 WSW 22 33 12 18 1010.0 1009.7 0.0
28/10:00am 37.3 34.0 12.7 23 15.0 WSW 22 33 12 18 1010.6 1010.3 0.0
28/09:30am 37.0 33.2 12.4 23 14.9 WSW 24 37 13 20 1011.0 1010.7 0.0
28/09:00am 36.6 33.7 12.8 24 14.5 W 20 33 11 18 1011.3 1011.0 0.0
28/08:30am 35.4 32.5 12.4 25 13.8 W 19 24 10 13 1011.4 1011.1 0.0
28/08:00am 34.4 32.0 12.7 27 13.1 W 17 26 9 14 1011.5 1011.2 0.0
28/07:30am 32.8 33.9 17.0 38 10.1 W 7 11 4 6 1011.5 1011.2 0.0
28/07:00am 30.2 32.4 19.6 53 7.0 S 7 9 4 5 1011.4 1011.1 0.0
28/06:30am 28.4 31.4 20.9 64 5.0 S 6 7 3 4 1010.8 1010.5 0.0
28/06:00am 29.4 30.0 18.5 52 7.0 WNW 13 22 7 12 1010.3 1010.0 0.0
28/05:30am 25.1 27.7 20.1 74 3.3 N 6 7 3 4 1009.8 1009.5 0.0
28/05:00am 24.9 26.3 20.4 76 2.9 N 13 15 7 8 1009.4 1009.1 0.0
28/04:30am 24.7 27.3 20.4 77 2.8 N 7 9 4 5 1009.1 1008.8 0.0
28/04:00am 25.3 26.8 20.5 75 3.1 N 13 15 7 8 1008.6 1008.3 0.0
28/03:30am 26.0 26.8 20.6 72 3.5 N 17 20 9 11 1008.5 1008.2 0.0
28/03:00am 26.0 26.8 20.6 72 3.6 N 17 19 9 10 1008.3 1008.0 0.0
28/02:30am 26.0 27.3 20.8 73 3.4 N 15 17 8 9 1008.2 1007.9 0.0
28/02:00am 25.9 27.5 20.7 73 3.4 N 13 15 7 8 1008.3 1008.0 0.0
28/01:30am 26.0 27.7 21.0 74 3.3 N 13 15 7 8 1008.3 1008.0 0.0
28/01:00am 25.4 27.2 21.1 77 2.8 NNE 13 15 7 8 1008.5 1008.2 0.0
28/12:30am 26.2 28.3 21.0 73 3.4 N 11 13 6 7 1008.8 1008.5 0.0
28/12:00am 26.2 28.0 21.2 74 3.3 NNE 13 15 7 8 1009.2 1008.9 0.0
 
Date/Time
WST
Temp
°C
App
Temp
°C
Dew
Point
°C
Rel
Hum
%
Delta-T
°C
Wind Press
QNH
hPa
Press
MSL
hPa
Rain since
9am
mm
Dir  Spd
km/h
Gust
km/h
Spd
kts
Gust
kts
27/11:30pm 26.5 29.5 20.8 71 3.8 N 6 9 3 5 1009.4 1009.1 0.0
27/11:00pm 26.5 29.0 21.0 72 3.6 NNE 9 11 5 6 1009.6 1009.3 0.0
27/10:30pm 27.3 29.6 20.6 67 4.4 N 9 9 5 5 1009.9 1009.6 0.0
27/10:00pm 27.6 29.7 20.2 64 4.9 NNE 9 13 5 7 1010.1 1009.8 0.0
27/09:30pm 28.2 30.8 20.0 61 5.4 NW 6 9 3 5 1010.2 1009.9 0.0
27/09:00pm 28.3 30.2 20.6 63 5.1 NNW 11 13 6 7 1010.2 1009.9 0.0
27/08:30pm 28.9 30.7 20.4 60 5.6 N 11 15 6 8 1010.1 1009.8 0.0
27/08:00pm 29.3 31.1 19.6 56 6.3 N 9 15 5 8 1009.9 1009.6 0.0
27/07:30pm 30.1 31.4 19.2 52 7.1 N 11 17 6 9 1009.5 1009.2 0.0
27/07:00pm 31.2 31.9 18.9 48 8.0 N 13 19 7 10 1009.2 1008.9 0.0
27/06:30pm 31.7 31.0 18.3 45 8.7 N 19 22 10 12 1008.7 1008.4 0.0
27/06:00pm 32.7 31.8 18.1 42 9.5 N 20 24 11 13 1008.3 1008.0 0.0
27/05:30pm 33.7 32.2 18.6 40 9.9 N 24 32 13 17 1007.6 1007.3 0.0
27/05:00pm 35.0 32.2 18.1 36 11.0 N 30 39 16 21 1006.9 1006.6 0.0
27/04:51pm 35.3 33.0 18.4 37 11.1 N 28 41 15 22 1006.6 1006.3 0.0
27/04:30pm 37.6 36.3 13.6 24 14.8 N 13 15 7 8 1006.2 1005.9 0.0
27/04:00pm 38.3 36.3 12.8 22 15.6 N 15 20 8 11 1005.9 1005.6 0.0
27/03:30pm 38.5 37.3 15.0 25 14.8 N 15 20 8 11 1005.8 1005.5 0.0
27/03:00pm 38.7 37.4 13.8 22 15.5 N 13 20 7 11 1005.9 1005.6 0.0
27/02:30pm 39.5 37.7 14.5 23 15.7 N 17 28 9 15 1005.9 1005.6 0.0
27/02:00pm 38.5 37.0 14.3 23 15.2 NNW 15 26 8 14 1006.0 1005.7 0.0
27/01:30pm 38.7 36.9 13.2 22 15.7 NNW 15 22 8 12 1006.3 1006.0 0.0
27/01:00pm 38.8 38.6 14.6 24 15.2 SW 9 20 5 11 1006.7 1006.4 0.0
27/12:30pm 38.8 36.7 14.6 24 15.2 NNW 19 28 10 15 1007.1 1006.8 0.0
27/12:00pm 38.4 38.1 15.5 26 14.6 WNW 11 20 6 11 1007.8 1007.5 0.0
27/11:30am 37.1 36.9 16.6 29 13.2 ESE 13 20 7 11 1008.6 1008.3 0.0
27/11:00am 37.1 37.7 18.6 33 12.2 SE 13 19 7 10 1009.4 1009.1 0.0
27/10:30am 35.4 36.1 18.0 35 11.3 SE 11 15 6 8 1010.1 1009.8 0.0
27/10:00am 35.2 35.3 18.3 36 11.0 SE 15 19 8 10 1010.5 1010.2 0.0
27/09:30am 34.5 35.1 16.8 34 11.3 N 9 15 5 8 1010.9 1010.6 0.0
27/09:00am 33.9 35.9 19.9 43 9.3 NNE 9 15 5 8 1011.2 1010.9 0.0
27/08:30am 33.1 34.7 19.9 45 8.8 N 11 17 6 9 1011.2 1010.9 0.0
27/08:00am 30.5 32.8 22.1 61 5.7 NNE 13 15 7 8 1011.6 1011.3 0.0
27/07:30am 29.5 33.7 23.2 69 4.3 E 6 9 3 5 1011.4 1011.1 0.0
27/07:00am 29.0 34.0 23.2 71 4.0 E 2 7 1 4 1011.2 1010.9 0.0
27/06:30am 27.1 31.2 22.9 78 2.9 S 6 9 3 5 1010.9 1010.6 0.0
27/06:00am 25.8 31.0 23.5 87 1.6 ESE 2 7 1 4 1010.9 1010.6 0.0
27/05:30am 24.3 28.8 22.2 88 1.4 NE 2 6 1 3 1010.5 1010.2 0.0
27/05:00am 24.5 29.4 22.4 88 1.4 CALM 0 6 0 3 1010.3 1010.0 0.0
27/04:30am 23.7 28.3 21.8 89 1.3 CALM 0 0 0 0 1010.0 1009.7 0.0
27/04:00am 24.1 28.6 21.6 86 1.7 CALM 0 0 0 0 1009.8 1009.5 0.0
27/03:30am 25.1 29.8 22.0 83 2.1 CALM 0 0 0 0 1009.4 1009.1 0.0
27/03:00am 25.1 28.5 22.0 83 2.1 NNW 7 9 4 5 1009.1 1008.8 0.0
27/02:30am 24.9 28.2 21.4 81 2.3 W 6 7 3 4 1009.0 1008.7 0.0
27/02:00am 25.5 28.3 21.6 79 2.6 N 9 13 5 7 1008.8 1008.5 0.0
27/01:30am 26.4 28.1 21.6 75 3.2 N 15 15 8 8 1008.8 1008.5 0.0
27/01:00am 26.2 28.0 21.2 74 3.3 N 13 15 7 8 1008.9 1008.6 0.0
27/12:30am 25.8 28.4 20.4 72 3.5 N 7 7 4 4 1009.3 1009.0 0.0
27/12:00am 26.3 30.0 19.9 68 4.2 CALM 0 0 0 0 1009.7 1009.4 0.0
 
Date/Time
WST
Temp
°C
App
Temp
°C
Dew
Point
°C
Rel
Hum
%
Delta-T
°C
Wind Press
QNH
hPa
Press
MSL
hPa
Rain since
9am
mm
Dir  Spd
km/h
Gust
km/h
Spd
kts
Gust
kts
26/11:30pm 26.1 29.6 19.5 67 4.3 CALM 0 0 0 0 1010.1 1009.8 0.0

Other Formats:

Comma delimited format used in spreadsheet applications
http://www.bom.gov.au/fwo/IDW60801/IDW60801.94216.axf

JavaScript Object Notation format (JSON) in row-major order
http://www.bom.gov.au/fwo/IDW60801/IDW60801.94216.json